This is the latest recevied weather packets stored in our database for station/object SQ4LOL-13. If no packets are shown the sender has not sent any weather packets the latest 10 day(s).
| Time | Temp. | Humidity | Pressure | Rain* | Wind** | Luminosity | Snow |
|---|---|---|---|---|---|---|---|
| 1777556082 | 12.78° C | 35% | 1009.3 hPa | 0 mm | - | - | - |
| 1777553052 | 14.44° C | 33% | 1009.5 hPa | 0 mm | - | - | - |
| 1777545827 | 10.56° C | 43% | 1010.5 hPa | 0 mm | - | - | - |
| 1777544022 | 10° C | 42% | 1010.7 hPa | 0 mm | - | - | - |
| 1777541013 | 9.44° C | 46% | 1011.3 hPa | 0 mm | - | - | - |
| 1777539807 | 9.44° C | 45% | 1011.3 hPa | 0 mm | - | - | - |
| 1777538603 | 8.89° C | 48% | 1011.5 hPa | 0 mm | - | - | - |
| 1777535012 | 7.78° C | 52% | 1011.7 hPa | 0 mm | - | - | - |
| 1777532022 | 6.11° C | 55% | 1011.7 hPa | 0 mm | - | - | - |
| 1777530778 | 5.56° C | 63% | 1011.6 hPa | 0 mm | - | - | - |
| 1777529574 | 4.44° C | 68% | 1011.7 hPa | 0 mm | - | - | - |
| 1777521747 | 2.78° C | 73% | 1011.5 hPa | 0 mm | - | - | - |
| 1777518737 | 2.78° C | 74% | 1011.3 hPa | 0 mm | - | - | - |
| 1777516329 | 2.78° C | 72% | 1011.4 hPa | 0 mm | - | - | - |
| 1777510911 | 3.33° C | 69% | 1010.9 hPa | 0 mm | - | - | - |
| 1777498871 | 3.89° C | 64% | 1011 hPa | 0 mm | - | - | - |
| 1777495260 | 4.44° C | 63% | 1010.8 hPa | 0 mm | - | - | - |
| 1777494658 | 4.44° C | 62% | 1010.7 hPa | 0 mm | - | - | - |
| 1777493453 | 4.44° C | 61% | 1010.6 hPa | 0 mm | - | - | - |
| 1777483821 | 7.22° C | 44% | 1009.8 hPa | 0 mm | - | - | - |
| 1777480209 | 7.78° C | 44% | 1009.5 hPa | 0 mm | - | - | - |
| 1777476598 | 8.33° C | 41% | 1009.2 hPa | 0 mm | - | - | - |
| 1777472383 | 9.44° C | 39% | 1009 hPa | 0 mm | - | - | - |
| 1777471782 | 8.89° C | 39% | 1009 hPa | 0 mm | - | - | - |
| 1777466363 | 7.78° C | 45% | 1009 hPa | 0 mm | - | - | - |
* Rain latest hour (hover to see other rain measurements)
** Current wind speed in m/s (hover to see current wind gust speed)